Time;durP1;ratioP1;P1;durP2;ratioP2;P2;SDS_P1;SDS_P2;PMS_P1;PMS_P2;Temp;Humidity;BMP_temperature;BMP_pressure;BME280_temperature;BME280_humidity;BME280_pressure;Samples;Min_cycle;Max_cycle;Signal;HPM_P1;HPM_P2
2022/04/20 03:01:34;;;;;;;0.80;0.70;;;10.60;58.70;;;;;;5664104;23;20994;-70
2022/04/20 03:04:01;;;;;;;0.70;0.70;;;10.50;58.80;;;;;;5016643;28;20451;-71
2022/04/20 03:06:28;;;;;;;0.70;0.70;;;10.50;58.90;;;;;;5016523;28;20443;-71
2022/04/20 03:08:55;;;;;;;0.70;0.70;;;10.50;59.00;;;;;;5016562;28;20470;-72
2022/04/20 03:11:22;;;;;;;0.90;0.70;;;10.50;59.00;;;;;;5016179;28;20979;-73
2022/04/20 03:13:49;;;;;;;0.70;0.70;;;10.50;58.90;;;;;;5017772;28;20440;-72
2022/04/20 03:16:17;;;;;;;0.80;0.80;;;10.50;58.90;;;;;;5016440;28;20455;-73
2022/04/20 03:18:45;;;;;;;0.70;0.70;;;10.50;59.00;;;;;;5016471;28;20761;-72
2022/04/20 03:21:11;;;;;;;0.70;0.67;;;10.40;59.10;;;;;;5016274;28;20495;-72
2022/04/20 03:23:38;;;;;;;0.70;0.63;;;10.40;59.30;;;;;;5016267;28;20448;-73
2022/04/20 03:26:06;;;;;;;0.70;0.70;;;10.40;59.30;;;;;;5016198;28;20526;-73
2022/04/20 03:28:33;;;;;;;0.80;0.80;;;10.30;59.40;;;;;;5015882;28;20828;-72
2022/04/20 03:31:00;;;;;;;0.73;0.73;;;10.20;59.70;;;;;;5016063;28;20460;-73
2022/04/20 03:33:27;;;;;;;0.70;0.63;;;10.10;59.90;;;;;;5016075;28;20915;-72
2022/04/20 03:35:55;;;;;;;0.70;0.70;;;10.10;60.10;;;;;;5016105;28;20452;-73
2022/04/20 03:38:22;;;;;;;0.70;0.70;;;10.10;59.90;;;;;;5016097;28;20449;-72
2022/04/20 03:40:49;;;;;;;0.77;0.77;;;10.10;59.80;;;;;;5015891;28;20468;-72
2022/04/20 03:43:15;;;;;;;0.67;0.67;;;10.10;60.10;;;;;;5015570;28;20479;-73
2022/04/20 03:45:42;;;;;;;0.80;0.80;;;10.00;60.00;;;;;;5014800;28;20963;-73
2022/04/20 03:48:09;;;;;;;0.70;0.67;;;10.00;59.90;;;;;;5016378;28;20527;-72
2022/04/20 03:50:36;;;;;;;0.63;0.60;;;10.10;59.80;;;;;;5015891;28;20483;-72
2022/04/20 03:53:04;;;;;;;0.80;0.80;;;10.10;59.80;;;;;;5015806;28;20444;-72
2022/04/20 03:55:31;;;;;;;0.70;0.70;;;10.00;59.80;;;;;;5015840;28;20440;-72
2022/04/20 03:57:57;;;;;;;0.70;0.70;;;10.10;59.80;;;;;;5015340;28;20444;-72
2022/04/20 04:00:25;;;;;;;0.80;0.80;;;10.10;59.70;;;;;;5015706;28;20452;-73
2022/04/20 04:02:52;;;;;;;0.77;0.77;;;10.00;59.70;;;;;;5015125;28;20483;-72
2022/04/20 04:05:19;;;;;;;0.80;0.60;;;10.00;59.60;;;;;;5015493;28;20448;-72
2022/04/20 04:07:46;;;;;;;0.70;0.70;;;10.00;59.70;;;;;;5015744;28;20858;-74
2022/04/20 04:10:14;;;;;;;0.90;0.70;;;9.90;59.40;;;;;;5016813;28;20495;-73
2022/04/20 04:12:41;;;;;;;1.37;1.00;;;9.90;59.50;;;;;;5016037;28;20468;-73
2022/04/20 04:15:09;;;;;;;0.70;0.70;;;9.90;59.50;;;;;;5015938;28;20529;-73
2022/04/20 04:17:35;;;;;;;0.80;0.80;;;9.90;59.30;;;;;;5015943;28;20460;-72
2022/04/20 04:20:02;;;;;;;0.70;0.70;;;9.90;59.20;;;;;;5016037;28;20444;-72
2022/04/20 04:22:29;;;;;;;0.90;0.80;;;9.90;59.00;;;;;;5015735;28;20487;-73
2022/04/20 04:24:57;;;;;;;0.70;0.70;;;9.90;59.00;;;;;;5015863;28;20455;-72
2022/04/20 04:27:25;;;;;;;0.80;0.73;;;9.90;59.00;;;;;;5015357;28;20482;-73
2022/04/20 04:29:52;;;;;;;0.70;0.70;;;9.90;59.30;;;;;;5015745;28;20479;-73
2022/04/20 04:32:19;;;;;;;0.80;0.70;;;9.80;59.20;;;;;;5015526;28;20465;-73
2022/04/20 04:34:45;;;;;;;0.70;0.67;;;9.80;59.50;;;;;;5015349;28;20970;-73
2022/04/20 04:37:14;;;;;;;0.70;0.70;;;9.80;59.20;;;;;;5015366;28;20470;-72
2022/04/20 04:39:41;;;;;;;0.70;0.63;;;9.80;59.20;;;;;;5015354;28;20452;-74
2022/04/20 04:42:08;;;;;;;0.70;0.70;;;9.80;59.30;;;;;;5014997;28;20511;-73
2022/04/20 04:44:36;;;;;;;0.70;0.70;;;9.80;59.30;;;;;;5015576;28;20452;-74
2022/04/20 04:49:47;;;;;;;0.77;0.77;;;9.90;59.10;;;;;;5015212;28;20416;-73
2022/04/20 04:52:14;;;;;;;0.80;0.70;;;10.00;59.20;;;;;;5015233;28;20983;-73
2022/04/20 04:54:42;;;;;;;0.70;0.70;;;10.00;59.30;;;;;;5014812;28;20444;-72
2022/04/20 04:57:10;;;;;;;0.90;0.90;;;10.10;58.80;;;;;;5013437;28;20455;-70
2022/04/20 04:59:39;;;;;;;1.37;0.80;;;10.20;58.70;;;;;;5014381;28;20457;-72
2022/04/20 05:02:06;;;;;;;0.63;0.60;;;10.30;58.60;;;;;;5014218;28;20527;-71
2022/04/20 05:04:34;;;;;;;0.70;0.63;;;10.40;58.50;;;;;;5014978;28;20506;-72
2022/04/20 05:07:01;;;;;;;0.70;0.60;;;10.50;58.30;;;;;;5014019;28;20448;-71
2022/04/20 05:09:28;;;;;;;0.77;0.77;;;10.60;57.70;;;;;;5013967;28;20452;-72
2022/04/20 05:11:55;;;;;;;0.70;0.70;;;10.70;57.40;;;;;;5014206;28;20600;-70
2022/04/20 05:14:22;;;;;;;0.70;0.70;;;10.80;56.60;;;;;;5014216;28;20531;-72
2022/04/20 05:16:51;;;;;;;0.80;0.80;;;10.90;57.10;;;;;;5014156;28;20483;-72
2022/04/20 05:19:18;;;;;;;0.90;0.70;;;11.00;56.10;;;;;;5014063;28;20483;-72
2022/04/20 05:21:45;;;;;;;0.70;0.70;;;11.20;56.30;;;;;;5013599;28;20959;-71
2022/04/20 05:24:12;;;;;;;0.77;0.77;;;11.40;55.40;;;;;;5014213;28;20452;-71
2022/04/20 05:26:39;;;;;;;0.70;0.70;;;11.50;55.60;;;;;;5013858;28;20452;-71
2022/04/20 05:29:06;;;;;;;0.67;0.60;;;11.70;54.90;;;;;;5013802;28;20539;-70
2022/04/20 05:31:32;;;;;;;0.70;0.70;;;11.80;54.20;;;;;;5013820;28;20468;-71
2022/04/20 05:34:02;;;;;;;0.70;0.70;;;11.90;53.60;;;;;;5014182;28;20448;-70
2022/04/20 05:41:39;;;;;;;0.60;0.60;;;11.90;53.50;;;;;;5014179;28;20849;-71
2022/04/20 05:42:01;;;;;;;0.70;0.67;;;11.90;53.20;;;;;;5013429;28;20633;-70
2022/04/20 05:44:28;;;;;;;0.70;0.60;;;11.90;53.20;;;;;;5014112;28;20433;-71
2022/04/20 05:46:54;;;;;;;0.63;0.60;;;11.80;53.40;;;;;;5013699;28;20440;-71
2022/04/20 05:49:22;;;;;;;0.60;0.60;;;11.80;53.10;;;;;;5013541;28;20873;-71
2022/04/20 05:51:49;;;;;;;0.70;0.60;;;11.60;53.50;;;;;;5013471;28;20471;-71
2022/04/20 05:54:16;;;;;;;0.70;0.70;;;11.50;53.70;;;;;;5013266;28;20943;-71
2022/04/20 05:56:42;;;;;;;0.70;0.70;;;11.50;53.50;;;;;;5013409;28;20448;-71
2022/04/20 05:59:09;;;;;;;0.70;0.67;;;11.40;54.10;;;;;;5013494;28;20451;-71
2022/04/20 06:01:36;;;;;;;0.70;0.70;;;11.40;53.90;;;;;;5012936;28;20569;-71
2022/04/20 06:04:02;;;;;;;0.60;0.53;;;11.20;54.80;;;;;;5013281;28;20862;-70
2022/04/20 06:06:30;;;;;;;0.80;0.80;;;11.10;53.80;;;;;;5013332;28;20452;-71
2022/04/20 06:08:57;;;;;;;0.60;0.60;;;11.20;55.00;;;;;;5013271;28;20835;-73
2022/04/20 06:11:24;;;;;;;0.70;0.60;;;11.30;54.00;;;;;;5013963;28;20468;-71
2022/04/20 06:13:50;;;;;;;0.70;0.63;;;11.00;53.90;;;;;;5013582;28;20444;-71
2022/04/20 06:16:17;;;;;;;0.70;0.70;;;10.80;55.00;;;;;;5012832;28;20916;-71
2022/04/20 06:18:44;;;;;;;0.70;0.70;;;10.70;55.10;;;;;;5011698;28;20522;-71
2022/04/20 06:21:10;;;;;;;0.70;0.60;;;10.70;55.00;;;;;;5013041;28;20523;-71
2022/04/20 06:23:38;;;;;;;0.60;0.57;;;10.70;56.30;;;;;;5013065;28;20480;-71
2022/04/20 06:26:05;;;;;;;0.63;0.63;;;11.00;55.10;;;;;;5013040;28;20499;-71
2022/04/20 06:28:32;;;;;;;0.70;0.60;;;11.00;54.40;;;;;;5012849;28;20808;-71
2022/04/20 06:30:59;;;;;;;0.70;0.70;;;11.00;55.10;;;;;;5012784;28;20494;-71
2022/04/20 06:33:26;;;;;;;0.70;0.70;;;11.00;54.50;;;;;;5012904;28;20907;-71
2022/04/20 06:35:53;;;;;;;1.10;0.60;;;11.10;54.80;;;;;;5013051;28;20478;-71
2022/04/20 06:38:21;;;;;;;0.70;0.70;;;11.00;54.50;;;;;;5013119;28;20479;-71
2022/04/20 06:40:49;;;;;;;0.70;0.70;;;10.70;55.40;;;;;;5012511;28;21040;-71
2022/04/20 06:43:16;;;;;;;0.70;0.70;;;10.50;55.60;;;;;;5013756;28;20491;-72
2022/04/20 06:45:44;;;;;;;0.80;0.80;;;10.60;55.40;;;;;;5012720;28;20923;-73
2022/04/20 06:48:11;;;;;;;1.00;0.90;;;10.60;55.80;;;;;;5013050;28;20555;-73
2022/04/20 06:50:40;;;;;;;0.67;0.63;;;10.80;55.60;;;;;;5012876;28;20456;-72
2022/04/20 06:58:38;;;;;;;0.97;0.70;;;11.30;54.70;;;;;;5013002;28;20415;-73
2022/04/20 07:01:07;;;;;;;0.60;0.60;;;11.40;54.20;;;;;;5012983;28;20487;-73
2022/04/20 07:03:34;;;;;;;0.63;0.60;;;11.40;53.40;;;;;;5012950;28;20516;-73
2022/04/20 07:06:01;;;;;;;0.70;0.70;;;11.30;54.10;;;;;;5013393;28;20447;-74
2022/04/20 07:08:28;;;;;;;0.70;0.70;;;11.30;53.90;;;;;;5013132;28;20444;-74
2022/04/20 07:10:56;;;;;;;0.70;0.70;;;11.00;54.40;;;;;;5013051;28;20468;-72
2022/04/20 07:13:23;;;;;;;0.70;0.60;;;11.00;55.00;;;;;;5013735;28;20451;-73
2022/04/20 07:15:50;;;;;;;0.87;0.70;;;10.90;55.30;;;;;;5013237;28;20455;-73
2022/04/20 07:18:17;;;;;;;0.70;0.70;;;10.70;55.50;;;;;;5012565;28;20444;-72
2022/04/20 07:20:44;;;;;;;0.70;0.60;;;10.90;56.20;;;;;;5013157;28;20874;-73
2022/04/20 07:23:12;;;;;;;1.23;0.70;;;11.00;55.60;;;;;;5016454;28;20475;-72
2022/04/20 07:25:39;;;;;;;0.63;0.60;;;11.00;55.20;;;;;;5016714;28;20539;-72
2022/04/20 07:28:08;;;;;;;0.80;0.80;;;11.00;55.60;;;;;;5016418;28;20459;-72
2022/04/20 07:30:35;;;;;;;0.67;0.63;;;10.60;56.50;;;;;;5016372;28;20506;-72
2022/04/20 07:33:03;;;;;;;1.00;0.80;;;10.80;56.90;;;;;;5016499;28;20439;-72
2022/04/20 07:35:30;;;;;;;0.70;0.70;;;10.90;56.60;;;;;;5016298;28;20958;-72
2022/04/20 07:37:57;;;;;;;0.70;0.70;;;11.00;55.90;;;;;;5016637;28;20448;-72
2022/04/20 07:40:24;;;;;;;0.70;0.60;;;11.10;56.10;;;;;;5016643;28;20548;-72
2022/04/20 07:42:55;;;;;;;0.70;0.70;;;11.20;55.50;;;;;;5016331;28;20484;-73
2022/04/20 07:45:26;;;;;;;0.77;0.77;;;11.10;55.80;;;;;;5016286;28;20481;-73
2022/04/20 07:47:54;;;;;;;0.90;0.70;;;11.10;55.70;;;;;;5016538;28;20445;-73
2022/04/20 07:50:24;;;;;;;2.50;0.73;;;10.70;56.60;;;;;;5016341;28;20479;-71
2022/04/20 07:52:54;;;;;;;0.73;0.73;;;10.90;56.90;;;;;;5016024;28;20519;-72
2022/04/20 07:55:22;;;;;;;2.23;0.80;;;11.20;56.50;;;;;;5015642;28;20448;-72
2022/04/20 07:57:50;;;;;;;0.70;0.70;;;11.40;55.40;;;;;;5015740;28;20455;-72
2022/04/20 08:00:17;;;;;;;0.80;0.70;;;11.70;55.00;;;;;;5015902;28;20506;-71
2022/04/20 08:02:46;;;;;;;0.70;0.70;;;11.80;54.30;;;;;;5015095;28;20579;-72
2022/04/20 08:05:15;;;;;;;1.67;0.73;;;11.90;54.40;;;;;;5015518;28;20858;-72
2022/04/20 08:07:42;;;;;;;0.70;0.70;;;11.80;53.80;;;;;;5016126;28;20506;-72
2022/04/20 08:10:10;;;;;;;0.70;0.70;;;11.80;54.30;;;;;;5016239;28;20523;-71
2022/04/20 08:12:39;;;;;;;0.70;0.70;;;11.80;54.30;;;;;;5016356;28;20565;-72
2022/04/20 08:15:06;;;;;;;0.70;0.70;;;11.90;54.10;;;;;;5015737;28;20448;-72
2022/04/20 08:17:34;;;;;;;1.43;0.80;;;11.90;53.50;;;;;;5015905;28;20445;-71
2022/04/20 08:20:04;;;;;;;0.80;0.80;;;12.10;53.60;;;;;;5015746;28;20526;-71
2022/04/20 08:22:31;;;;;;;0.70;0.70;;;12.10;53.30;;;;;;5015312;28;20503;-72
2022/04/20 08:24:59;;;;;;;0.70;0.70;;;12.30;54.20;;;;;;5015017;28;20944;-71
2022/04/20 08:27:26;;;;;;;1.00;0.70;;;12.60;53.30;;;;;;5015162;28;20495;-72
2022/04/20 08:29:52;;;;;;;0.70;0.60;;;12.40;53.40;;;;;;5015193;28;20452;-71
2022/04/20 08:32:20;;;;;;;0.80;0.70;;;12.60;53.00;;;;;;5015097;28;20472;-72
2022/04/20 08:34:48;;;;;;;0.70;0.70;;;12.40;52.00;;;;;;5014740;28;20479;-72
2022/04/20 08:37:17;;;;;;;0.70;0.60;;;12.50;53.20;;;;;;5014712;28;20818;-72
2022/04/20 08:39:43;;;;;;;0.70;0.70;;;12.40;51.10;;;;;;5015036;28;20498;-72
2022/04/20 08:42:12;;;;;;;0.70;0.70;;;12.40;51.80;;;;;;5014879;28;20468;-72
2022/04/20 08:44:43;;;;;;;0.70;0.60;;;12.30;53.20;;;;;;5014724;28;20538;-73
2022/04/20 08:47:12;;;;;;;0.70;0.70;;;12.40;50.70;;;;;;5014743;28;20797;-71
2022/04/20 08:49:41;;;;;;;0.70;0.70;;;12.50;52.50;;;;;;5014418;28;20463;-72
2022/04/20 08:54:56;;;;;;;0.70;0.60;;;12.90;51.20;;;;;;5015013;28;20400;-72
2022/04/20 08:57:24;;;;;;;0.70;0.67;;;13.00;51.50;;;;;;5014713;28;20499;-71
2022/04/20 08:59:51;;;;;;;0.90;0.73;;;13.20;51.00;;;;;;5014138;28;20943;-73
2022/04/20 09:02:19;;;;;;;0.80;0.70;;;13.30;51.40;;;;;;5014136;28;20542;-72
2022/04/20 09:04:46;;;;;;;0.80;0.80;;;13.40;49.50;;;;;;5014070;28;20859;-73
2022/04/20 09:07:15;;;;;;;0.70;0.70;;;13.30;49.20;;;;;;5014383;28;20483;-72
2022/04/20 09:09:42;;;;;;;1.23;0.70;;;13.10;50.20;;;;;;5014586;28;20506;-72
2022/04/20 09:12:14;;;;;;;0.70;0.60;;;13.30;50.00;;;;;;5014412;28;20465;-72
2022/04/20 09:14:43;;;;;;;0.77;0.67;;;13.40;51.10;;;;;;5131844;23;20524;-75
2022/04/20 09:17:12;;;;;;;0.60;0.60;;;13.80;50.90;;;;;;5015382;28;20496;-76
2022/04/20 09:19:40;;;;;;;0.70;0.60;;;14.00;49.00;;;;;;5014893;28;20828;-76
2022/04/20 09:22:18;;;;;;;0.70;0.60;;;14.20;51.10;;;;;;5014810;28;20943;-75
2022/04/20 09:24:58;;;;;;;0.60;0.60;;;14.20;47.90;;;;;;5014545;28;20527;-75
2022/04/20 09:27:27;;;;;;;0.70;0.70;;;13.60;47.80;;;;;;5014920;28;20452;-75
2022/04/20 09:29:55;;;;;;;0.80;0.80;;;13.20;49.60;;;;;;5014697;28;20550;-75
2022/04/20 09:32:33;;;;;;;0.70;0.70;;;13.20;49.70;;;;;;5014281;28;20970;-75
2022/04/20 09:35:00;;;;;;;0.60;0.60;;;13.50;51.20;;;;;;5014262;28;20479;-74
2022/04/20 09:37:27;;;;;;;0.70;0.60;;;13.70;49.50;;;;;;5014452;28;20447;-75
2022/04/20 09:39:53;;;;;;;0.70;0.60;;;13.70;48.90;;;;;;5014310;28;20542;-75
2022/04/20 09:42:21;;;;;;;0.67;0.60;;;13.90;48.30;;;;;;5014483;28;20452;-74
2022/04/20 09:45:01;;;;;;;0.70;0.70;;;13.90;48.30;;;;;;5013936;28;20487;-75
2022/04/20 09:50:20;;;;;;;0.80;0.70;;;13.90;48.90;;;;;;5015087;28;20455;-75
2022/04/20 09:52:48;;;;;;;0.70;0.60;;;14.10;49.70;;;;;;5014482;28;20432;-75
2022/04/20 09:55:18;;;;;;;0.70;0.70;;;14.20;47.60;;;;;;5015023;28;20456;-75
2022/04/20 09:57:45;;;;;;;0.70;0.60;;;14.10;47.20;;;;;;5014268;28;20954;-76
2022/04/20 10:00:15;;;;;;;0.70;0.70;;;13.90;48.30;;;;;;5014610;28;20448;-75
2022/04/20 10:02:47;;;;;;;0.60;0.60;;;13.90;47.70;;;;;;5014389;28;20455;-75
2022/04/20 10:05:14;;;;;;;0.63;0.60;;;14.10;47.50;;;;;;5014281;28;20492;-74
2022/04/20 10:07:41;;;;;;;0.70;0.70;;;14.20;45.70;;;;;;5014588;28;20459;-75
2022/04/20 10:10:09;;;;;;;0.63;0.60;;;14.40;45.50;;;;;;5014487;28;20506;-75
2022/04/20 10:12:39;;;;;;;0.70;0.60;;;14.40;45.90;;;;;;5018085;28;20452;-74
2022/04/20 10:17:56;;;;;;;1.03;0.70;;;14.60;47.70;;;;;;5018338;28;20455;-75
2022/04/20 10:20:25;;;;;;;0.93;0.83;;;14.70;47.10;;;;;;5018907;28;20524;-76
2022/04/20 10:22:52;;;;;;;0.70;0.70;;;14.90;46.40;;;;;;5018404;28;20452;-75
2022/04/20 10:25:19;;;;;;;0.80;0.70;;;14.70;46.20;;;;;;5017622;28;20479;-76
2022/04/20 10:28:07;;;;;;;0.70;0.60;;;14.80;45.10;;;;;;5017135;28;20877;-76
2022/04/20 10:30:52;;;;;;;0.70;0.60;;;14.80;45.30;;;;;;5018439;28;20448;-76
2022/04/20 10:33:23;;;;;;;0.70;0.70;;;14.50;45.40;;;;;;5018714;28;20432;-77
2022/04/20 10:36:01;;;;;;;0.60;0.50;;;14.30;45.90;;;;;;5018648;28;20468;-76
2022/04/20 10:38:31;;;;;;;0.70;0.70;;;14.70;47.20;;;;;;5017948;28;20995;-75
2022/04/20 10:41:02;;;;;;;0.63;0.60;;;14.90;46.30;;;;;;5018956;28;20447;-75
2022/04/20 10:43:30;;;;;;;0.60;0.60;;;15.30;46.70;;;;;;5018422;28;20464;-76
2022/04/20 10:46:14;;;;;;;0.70;0.67;;;15.60;45.90;;;;;;5018201;28;20468;-75
2022/04/20 10:48:58;;;;;;;0.60;0.60;;;15.70;45.20;;;;;;5018301;28;20519;-76
2022/04/20 10:51:37;;;;;;;0.80;0.80;;;15.50;43.90;;;;;;5018520;28;20440;-76
2022/04/20 10:54:24;;;;;;;0.80;0.80;;;15.30;45.60;;;;;;5017452;28;20470;-75
2022/04/20 10:57:10;;;;;;;0.63;0.60;;;15.40;45.20;;;;;;5022345;28;20463;-76
2022/04/20 10:59:38;;;;;;;0.73;0.67;;;15.60;45.80;;;;;;5021818;28;20448;-76
2022/04/20 11:02:10;;;;;;;0.60;0.60;;;15.90;44.80;;;;;;5020473;28;20799;-76
2022/04/20 11:04:43;;;;;;;0.60;0.60;;;16.20;43.50;;;;;;5020426;28;20897;-75
2022/04/20 11:07:15;;;;;;;0.60;0.60;;;16.50;43.60;;;;;;5020772;28;20464;-75
2022/04/20 11:10:06;;;;;;;0.60;0.60;;;16.70;43.30;;;;;;5020596;28;20467;-75
2022/04/20 11:18:43;;;;;;;0.60;0.60;;;15.80;43.60;;;;;;5020237;28;20427;-77
2022/04/20 11:21:13;;;;;;;0.83;0.73;;;15.80;44.80;;;;;;5019997;28;20440;-76
2022/04/20 11:23:57;;;;;;;0.80;0.60;;;16.20;44.70;;;;;;5019093;28;20479;-76
2022/04/20 11:26:28;;;;;;;0.60;0.60;;;16.50;44.70;;;;;;5017595;28;20455;-76
2022/04/20 11:28:56;;;;;;;0.67;0.60;;;16.60;44.00;;;;;;5019719;28;20451;-75
2022/04/20 11:31:23;;;;;;;0.60;0.50;;;16.70;42.10;;;;;;5019168;28;20819;-76
2022/04/20 11:33:52;;;;;;;0.70;0.70;;;16.70;42.70;;;;;;5019983;28;20837;-76
2022/04/20 11:36:21;;;;;;;0.60;0.60;;;16.60;42.70;;;;;;5020880;28;20447;-77
2022/04/20 11:38:50;;;;;;;0.60;0.60;;;16.50;43.30;;;;;;5019599;28;20510;-76
2022/04/20 11:41:18;;;;;;;0.83;0.60;;;16.70;44.10;;;;;;5020283;28;20448;-77
2022/04/20 11:43:45;;;;;;;0.70;0.70;;;16.90;42.10;;;;;;5020518;28;20480;-76
2022/04/20 11:46:14;;;;;;;0.60;0.60;;;17.00;41.70;;;;;;5020263;28;20451;-77
2022/04/20 11:48:54;;;;;;;0.60;0.60;;;17.00;41.90;;;;;;5020761;28;20448;-76
2022/04/20 11:51:25;;;;;;;0.60;0.60;;;16.30;43.00;;;;;;5020426;28;20424;-76
2022/04/20 11:53:52;;;;;;;0.63;0.63;;;16.50;42.90;;;;;;5021421;28;20507;-75
2022/04/20 11:56:32;;;;;;;0.60;0.60;;;16.60;43.20;;;;;;5021735;28;20534;-76
2022/04/20 11:58:59;;;;;;;0.60;0.60;;;16.60;41.60;;;;;;5020414;28;20440;-75
2022/04/20 12:01:26;;;;;;;0.60;0.60;;;16.80;42.30;;;;;;5020163;28;20455;-79
2022/04/20 12:03:54;;;;;;;0.80;0.67;;;16.80;42.30;;;;;;5020069;28;20490;-76
2022/04/20 12:06:24;;;;;;;0.70;0.70;;;16.90;40.20;;;;;;5018722;28;20543;-76
2022/04/20 12:08:53;;;;;;;0.60;0.60;;;17.20;42.30;;;;;;5019753;28;20408;-77
2022/04/20 12:11:20;;;;;;;0.60;0.60;;;17.30;40.70;;;;;;5019955;28;20920;-77
2022/04/20 12:13:53;;;;;;;0.70;0.70;;;17.50;41.50;;;;;;5019331;28;20436;-76
2022/04/20 12:16:20;;;;;;;0.70;0.70;;;17.50;40.40;;;;;;5019586;28;20436;-75
2022/04/20 12:18:47;;;;;;;0.70;0.60;;;17.50;41.20;;;;;;5019288;28;20456;-77
2022/04/20 12:21:45;;;;;;;0.77;0.77;;;17.90;41.40;;;;;;5018641;28;20460;-76
2022/04/20 12:24:20;;;;;;;0.63;0.63;;;18.30;41.20;;;;;;5019611;28;20905;-76
2022/04/20 12:26:48;;;;;;;0.60;0.60;;;18.30;39.80;;;;;;5019316;28;20793;-76
2022/04/20 12:29:16;;;;;;;0.70;0.70;;;18.30;41.80;;;;;;5019796;28;20459;-77
2022/04/20 12:31:44;;;;;;;0.63;0.60;;;17.80;38.90;;;;;;5018053;28;20488;-76
2022/04/20 12:34:15;;;;;;;0.70;0.70;;;17.60;41.00;;;;;;5015245;28;20971;-76
2022/04/20 12:36:58;;;;;;;0.70;0.70;;;17.70;40.80;;;;;;5015577;28;20459;-76
2022/04/20 12:39:34;;;;;;;0.73;0.70;;;18.20;41.50;;;;;;5015631;28;20486;-76
2022/04/20 12:42:05;;;;;;;0.60;0.60;;;18.10;40.00;;;;;;5015310;28;20428;-76
2022/04/20 12:44:51;;;;;;;0.63;0.60;;;18.00;40.40;;;;;;5016275;28;20487;-76
2022/04/20 12:47:34;;;;;;;0.67;0.67;;;17.90;40.40;;;;;;5015400;28;20456;-76
2022/04/20 12:50:20;;;;;;;0.60;0.60;;;17.80;40.90;;;;;;5015487;28;20444;-76
2022/04/20 12:52:56;;;;;;;0.60;0.60;;;17.90;40.80;;;;;;5015432;28;20456;-76
2022/04/20 12:55:24;;;;;;;0.60;0.57;;;18.00;39.50;;;;;;5016059;28;20491;-76
2022/04/20 13:03:36;;;;;;;0.63;0.63;;;18.00;37.90;;;;;;5018448;28;20415;-75
2022/04/20 13:06:10;;;;;;;0.77;0.77;;;17.80;39.90;;;;;;5018109;28;20488;-76
2022/04/20 13:08:40;;;;;;;0.60;0.60;;;17.90;39.60;;;;;;5019399;28;20535;-77
2022/04/20 13:11:07;;;;;;;0.70;0.70;;;17.40;39.00;;;;;;5018699;28;20902;-77
2022/04/20 13:13:33;;;;;;;0.63;0.60;;;17.10;40.40;;;;;;5018414;28;20854;-77
2022/04/20 13:16:00;;;;;;;0.80;0.70;;;17.30;40.30;;;;;;5017930;28;20479;-75
2022/04/20 13:18:27;;;;;;;0.70;0.60;;;17.80;39.20;;;;;;5014105;28;20451;-77
2022/04/20 13:20:55;;;;;;;0.60;0.60;;;18.00;40.30;;;;;;5014872;28;20818;-76
2022/04/20 13:23:22;;;;;;;0.70;0.60;;;18.00;39.20;;;;;;5014569;28;20458;-76
2022/04/20 13:28:34;;;;;;;0.70;0.60;;;18.20;38.20;;;;;;5017850;28;20412;-77
2022/04/20 13:31:01;;;;;;;0.63;0.63;;;18.40;38.80;;;;;;5017907;28;20475;-76
2022/04/20 13:33:28;;;;;;;0.70;0.60;;;18.60;37.10;;;;;;5017439;28;20452;-74
2022/04/20 13:35:55;;;;;;;0.60;0.60;;;18.60;38.10;;;;;;5017621;28;20539;-76
2022/04/20 13:38:23;;;;;;;0.70;0.70;;;18.40;37.90;;;;;;5018245;28;20456;-76
2022/04/20 13:40:51;;;;;;;0.60;0.50;;;18.10;38.10;;;;;;5017306;28;20459;-75
2022/04/20 13:43:18;;;;;;;0.80;0.80;;;17.60;38.10;;;;;;5017691;28;20531;-75
2022/04/20 13:45:45;;;;;;;0.60;0.60;;;17.70;38.20;;;;;;5017383;28;20487;-76
2022/04/20 13:48:12;;;;;;;0.60;0.60;;;18.00;37.00;;;;;;5016249;28;20891;-76
2022/04/20 13:50:39;;;;;;;0.80;0.63;;;18.40;37.90;;;;;;5017040;28;20459;-75
2022/04/20 13:53:09;;;;;;;0.70;0.67;;;18.80;37.00;;;;;;5014430;28;20551;-76
2022/04/20 13:55:36;;;;;;;0.70;0.60;;;19.00;35.90;;;;;;5014300;28;20464;-76
2022/04/20 13:58:07;;;;;;;1.00;0.70;;;18.60;36.80;;;;;;5014398;28;20440;-76
2022/04/20 14:00:34;;;;;;;1.10;0.80;;;18.20;36.50;;;;;;5014214;28;20535;-76
2022/04/20 14:03:01;;;;;;;0.60;0.60;;;17.90;35.50;;;;;;5014196;28;20452;-76
2022/04/20 14:05:28;;;;;;;0.70;0.70;;;18.20;37.50;;;;;;5014030;28;20483;-76
2022/04/20 14:07:55;;;;;;;0.70;0.70;;;18.60;36.70;;;;;;5014351;28;20534;-76
2022/04/20 14:10:23;;;;;;;0.60;0.60;;;19.30;36.50;;;;;;5014599;28;20475;-77
2022/04/20 14:12:49;;;;;;;0.70;0.70;;;19.50;35.60;;;;;;5015129;28;20448;-76
2022/04/20 14:15:18;;;;;;;0.60;0.50;;;19.20;34.60;;;;;;5014223;28;20475;-75
2022/04/20 14:17:44;;;;;;;1.00;0.70;;;19.10;34.90;;;;;;5014253;28;20800;-76
2022/04/20 14:20:12;;;;;;;0.60;0.60;;;18.80;35.10;;;;;;5013968;28;20481;-76
2022/04/20 14:22:39;;;;;;;0.63;0.60;;;19.30;36.10;;;;;;5013928;28;20459;-76
2022/04/20 14:33:27;;;;;;;0.60;0.60;;;19.40;35.00;;;;;;5013953;28;20427;-76
2022/04/20 14:35:53;;;;;;;0.80;0.63;;;19.60;34.30;;;;;;5014114;28;20522;-76
2022/04/20 14:38:21;;;;;;;0.60;0.60;;;19.50;34.40;;;;;;5013747;28;20861;-77
2022/04/20 14:40:47;;;;;;;0.60;0.60;;;19.40;33.70;;;;;;5013389;28;20539;-77
2022/04/20 14:43:14;;;;;;;0.60;0.60;;;19.30;33.80;;;;;;5013185;28;20851;-76
2022/04/20 14:45:42;;;;;;;0.70;0.70;;;19.50;34.80;;;;;;5013014;28;21069;-75
2022/04/20 14:48:09;;;;;;;0.63;0.60;;;19.90;33.60;;;;;;5013913;28;20516;-77
2022/04/20 14:50:37;;;;;;;0.70;0.60;;;20.40;33.40;;;;;;5013495;28;20452;-76
2022/04/20 14:53:04;;;;;;;0.80;0.70;;;20.90;33.00;;;;;;5013510;28;20454;-76
2022/04/20 14:55:30;;;;;;;0.67;0.60;;;21.40;32.20;;;;;;5013465;28;20464;-75
2022/04/20 14:57:57;;;;;;;0.80;0.70;;;21.90;31.80;;;;;;5013462;28;20494;-76
2022/04/20 15:00:24;;;;;;;0.70;0.60;;;22.10;31.40;;;;;;5013305;28;20452;-76
2022/04/20 15:02:52;;;;;;;0.60;0.60;;;22.80;31.20;;;;;;5013466;28;20543;-75
2022/04/20 15:05:19;;;;;;;1.27;0.60;;;24.10;29.70;;;;;;5013119;28;20979;-77
2022/04/20 15:07:46;;;;;;;0.70;0.60;;;24.80;28.10;;;;;;5013414;28;20506;-77
2022/04/20 15:10:12;;;;;;;0.70;0.70;;;25.10;28.10;;;;;;5013593;28;20484;-76
2022/04/20 15:12:39;;;;;;;0.60;0.60;;;25.70;27.70;;;;;;5013247;28;20459;-76
2022/04/20 15:15:08;;;;;;;0.60;0.60;;;25.40;27.60;;;;;;5014286;28;20933;-77
2022/04/20 15:17:35;;;;;;;0.80;0.60;;;25.30;27.90;;;;;;5013224;28;20502;-76
2022/04/20 15:20:04;;;;;;;0.67;0.60;;;25.00;28.30;;;;;;5012888;28;20506;-77
2022/04/20 15:22:31;;;;;;;0.90;0.70;;;23.80;28.90;;;;;;5012891;28;20459;-76
2022/04/20 15:24:58;;;;;;;0.60;0.50;;;23.80;28.90;;;;;;5013103;28;20995;-76
2022/04/20 15:27:25;;;;;;;0.90;0.60;;;24.00;29.60;;;;;;5012762;28;20944;-76
2022/04/20 15:29:51;;;;;;;0.60;0.60;;;23.80;28.80;;;;;;5012977;28;20452;-76
2022/04/20 15:32:18;;;;;;;0.70;0.70;;;24.10;28.30;;;;;;5012666;28;21079;-77
2022/04/20 15:34:45;;;;;;;0.90;0.60;;;24.30;28.20;;;;;;5012881;28;20475;-77
2022/04/20 15:37:13;;;;;;;0.70;0.70;;;24.20;28.50;;;;;;5012625;28;21043;-75
2022/04/20 15:39:39;;;;;;;0.70;0.63;;;23.80;28.70;;;;;;5012590;28;20765;-77
2022/04/20 15:42:06;;;;;;;0.70;0.60;;;23.00;29.60;;;;;;5014438;28;20502;-76
2022/04/20 15:44:33;;;;;;;0.60;0.60;;;22.10;30.30;;;;;;5016351;28;20481;-77
2022/04/20 15:47:00;;;;;;;0.70;0.70;;;21.20;31.60;;;;;;5015959;28;21000;-76
2022/04/20 15:49:26;;;;;;;0.70;0.60;;;20.90;32.80;;;;;;5016217;28;20452;-77
2022/04/20 15:51:54;;;;;;;0.70;0.60;;;20.40;32.90;;;;;;5016279;28;20506;-77
2022/04/20 15:54:22;;;;;;;0.70;0.60;;;20.00;33.50;;;;;;5015802;28;20976;-77
2022/04/20 16:02:28;;;;;;;0.60;0.60;;;18.80;35.90;;;;;;4955485;29;20590;-76
2022/04/20 16:04:55;;;;;;;0.70;0.63;;;18.50;35.00;;;;;;5001350;28;20484;-77
2022/04/20 16:07:22;;;;;;;0.70;0.70;;;18.20;36.40;;;;;;5018785;28;20445;-77
2022/04/20 16:09:50;;;;;;;0.70;0.60;;;17.70;36.30;;;;;;5016812;28;20451;-76
2022/04/20 16:12:18;;;;;;;0.60;0.60;;;17.60;36.80;;;;;;5016395;28;20444;-77
2022/04/20 16:14:45;;;;;;;0.70;0.70;;;17.60;37.20;;;;;;5015619;28;20566;-76
2022/04/20 16:17:11;;;;;;;0.70;0.60;;;17.50;36.80;;;;;;5016055;28;20429;-76
2022/04/20 16:19:38;;;;;;;0.90;0.70;;;17.50;37.50;;;;;;5015614;28;20931;-75
2022/04/20 16:22:05;;;;;;;0.70;0.60;;;17.50;37.60;;;;;;5015771;28;20452;-76
2022/04/20 16:24:32;;;;;;;0.60;0.60;;;17.40;37.40;;;;;;5015376;28;20483;-76
2022/04/20 16:27:00;;;;;;;0.70;0.60;;;17.50;37.80;;;;;;5015870;28;20484;-76
2022/04/20 16:29:26;;;;;;;0.60;0.50;;;17.50;37.40;;;;;;5016914;28;20798;-76
2022/04/20 16:31:53;;;;;;;0.60;0.60;;;17.50;37.10;;;;;;5015757;28;20454;-76
2022/04/20 16:34:20;;;;;;;0.70;0.60;;;17.40;37.50;;;;;;5015581;28;20476;-76
2022/04/20 16:36:48;;;;;;;0.70;0.70;;;17.10;37.70;;;;;;5015412;28;20455;-76
2022/04/20 16:39:15;;;;;;;0.67;0.67;;;16.90;38.50;;;;;;5015218;28;20955;-76
2022/04/20 16:41:42;;;;;;;0.60;0.60;;;16.90;38.70;;;;;;5015482;28;20479;-77
2022/04/20 16:44:10;;;;;;;0.67;0.67;;;17.00;38.50;;;;;;5015326;28;20472;-76